sensor_id;sensor_type;location;lat;lon;timestamp;pressure;altitude;pressure_sealevel;temperature;humidity
37304;BME280;23188;51.188;16.374;2023-06-26T00:01:49;100327.27;;;18.09;100.00
37304;BME280;23188;51.188;16.374;2023-06-26T00:05:51;100319.23;;;18.05;100.00
37304;BME280;23188;51.188;16.374;2023-06-26T00:09:53;100320.76;;;18.01;100.00
37304;BME280;23188;51.188;16.374;2023-06-26T00:13:55;100317.36;;;17.98;100.00
37304;BME280;23188;51.188;16.374;2023-06-26T00:17:58;100315.00;;;17.95;100.00
37304;BME280;23188;51.188;16.374;2023-06-26T00:22:00;100312.20;;;17.91;100.00
37304;BME280;23188;51.188;16.374;2023-06-26T00:26:04;100309.70;;;17.84;100.00
37304;BME280;23188;51.188;16.374;2023-06-26T00:30:08;100310.91;;;17.81;100.00
37304;BME280;23188;51.188;16.374;2023-06-26T00:34:10;100303.73;;;17.79;100.00
37304;BME280;23188;51.188;16.374;2023-06-26T00:38:11;100303.45;;;17.73;100.00
37304;BME280;23188;51.188;16.374;2023-06-26T00:42:18;100299.98;;;17.69;100.00
37304;BME280;23188;51.188;16.374;2023-06-26T00:46:19;100298.40;;;17.67;100.00
37304;BME280;23188;51.188;16.374;2023-06-26T00:50:21;100292.30;;;17.62;100.00
37304;BME280;23188;51.188;16.374;2023-06-26T00:54:23;100299.04;;;17.58;100.00
37304;BME280;23188;51.188;16.374;2023-06-26T00:58:26;100296.87;;;17.53;100.00
37304;BME280;23188;51.188;16.374;2023-06-26T01:02:27;100297.27;;;17.48;100.00
37304;BME280;23188;51.188;16.374;2023-06-26T01:06:36;100294.67;;;17.44;100.00
37304;BME280;23188;51.188;16.374;2023-06-26T01:10:38;100289.90;;;17.41;100.00
37304;BME280;23188;51.188;16.374;2023-06-26T01:14:44;100285.33;;;17.41;100.00
37304;BME280;23188;51.188;16.374;2023-06-26T01:18:46;100283.29;;;17.35;100.00
37304;BME280;23188;51.188;16.374;2023-06-26T01:27:39;100278.00;;;17.24;100.00
37304;BME280;23188;51.188;16.374;2023-06-26T01:31:44;100274.17;;;17.20;100.00
37304;BME280;23188;51.188;16.374;2023-06-26T01:35:49;100270.65;;;17.16;100.00
37304;BME280;23188;51.188;16.374;2023-06-26T01:39:51;100270.99;;;17.13;100.00
37304;BME280;23188;51.188;16.374;2023-06-26T01:49:21;100263.40;;;17.12;100.00
37304;BME280;23188;51.188;16.374;2023-06-26T01:53:35;100264.34;;;17.10;100.00
37304;BME280;23188;51.188;16.374;2023-06-26T01:57:39;100260.58;;;17.05;100.00
37304;BME280;23188;51.188;16.374;2023-06-26T02:01:41;100254.55;;;17.01;100.00
37304;BME280;23188;51.188;16.374;2023-06-26T02:05:43;100256.06;;;16.98;100.00
37304;BME280;23188;51.188;16.374;2023-06-26T02:09:45;100252.05;;;16.95;100.00
37304;BME280;23188;51.188;16.374;2023-06-26T02:13:53;100251.12;;;16.94;100.00
37304;BME280;23188;51.188;16.374;2023-06-26T02:17:54;100250.62;;;16.92;100.00
37304;BME280;23188;51.188;16.374;2023-06-26T02:21:57;100251.26;;;16.91;100.00
37304;BME280;23188;51.188;16.374;2023-06-26T02:26:00;100250.58;;;16.83;100.00
37304;BME280;23188;51.188;16.374;2023-06-26T02:30:02;100253.14;;;16.74;100.00
37304;BME280;23188;51.188;16.374;2023-06-26T02:34:05;100253.69;;;16.68;100.00
37304;BME280;23188;51.188;16.374;2023-06-26T02:38:09;100257.78;;;16.67;100.00
37304;BME280;23188;51.188;16.374;2023-06-26T02:42:20;100258.89;;;16.68;100.00
37304;BME280;23188;51.188;16.374;2023-06-26T02:46:32;100260.80;;;16.69;100.00
37304;BME280;23188;51.188;16.374;2023-06-26T02:50:54;100257.83;;;16.74;100.00
37304;BME280;23188;51.188;16.374;2023-06-26T02:54:55;100257.13;;;16.77;100.00
37304;BME280;23188;51.188;16.374;2023-06-26T02:58:57;100254.13;;;16.78;100.00
37304;BME280;23188;51.188;16.374;2023-06-26T03:02:59;100251.48;;;16.73;100.00
37304;BME280;23188;51.188;16.374;2023-06-26T03:07:04;100254.34;;;16.75;100.00
37304;BME280;23188;51.188;16.374;2023-06-26T03:11:09;100246.67;;;16.82;100.00
37304;BME280;23188;51.188;16.374;2023-06-26T03:15:11;100247.89;;;16.93;100.00
37304;BME280;23188;51.188;16.374;2023-06-26T03:19:13;100254.64;;;16.95;100.00
37304;BME280;23188;51.188;16.374;2023-06-26T03:23:15;100251.98;;;16.94;100.00
37304;BME280;23188;51.188;16.374;2023-06-26T03:27:17;100251.42;;;16.91;100.00
37304;BME280;23188;51.188;16.374;2023-06-26T03:31:20;100249.48;;;17.00;100.00
37304;BME280;23188;51.188;16.374;2023-06-26T03:35:22;100241.86;;;17.20;100.00
37304;BME280;23188;51.188;16.374;2023-06-26T03:39:26;100243.64;;;17.35;100.00
37304;BME280;23188;51.188;16.374;2023-06-26T03:43:28;100245.59;;;17.56;100.00
37304;BME280;23188;51.188;16.374;2023-06-26T03:47:30;100241.05;;;17.78;100.00
37304;BME280;23188;51.188;16.374;2023-06-26T03:51:32;100241.77;;;18.00;100.00
37304;BME280;23188;51.188;16.374;2023-06-26T03:55:34;100234.81;;;18.22;100.00
37304;BME280;23188;51.188;16.374;2023-06-26T03:59:36;100230.45;;;18.35;100.00
37304;BME280;23188;51.188;16.374;2023-06-26T04:03:38;100233.31;;;18.56;100.00
37304;BME280;23188;51.188;16.374;2023-06-26T04:07:42;100232.50;;;18.78;100.00
37304;BME280;23188;51.188;16.374;2023-06-26T04:11:44;100235.23;;;18.94;100.00
37304;BME280;23188;51.188;16.374;2023-06-26T04:15:45;100236.42;;;19.04;100.00
37304;BME280;23188;51.188;16.374;2023-06-26T04:19:47;100235.38;;;19.19;100.00
37304;BME280;23188;51.188;16.374;2023-06-26T04:23:49;100234.81;;;19.48;100.00
37304;BME280;23188;51.188;16.374;2023-06-26T04:27:51;100232.77;;;19.88;100.00
37304;BME280;23188;51.188;16.374;2023-06-26T04:31:53;100233.96;;;20.46;100.00
37304;BME280;23188;51.188;16.374;2023-06-26T04:35:59;100232.11;;;21.48;100.00
37304;BME280;23188;51.188;16.374;2023-06-26T04:40:07;100227.64;;;22.34;99.71
37304;BME280;23188;51.188;16.374;2023-06-26T04:44:14;100225.63;;;23.08;92.08
37304;BME280;23188;51.188;16.374;2023-06-26T04:48:16;100225.70;;;23.31;89.18
37304;BME280;23188;51.188;16.374;2023-06-26T04:52:18;100219.80;;;23.68;88.13
37304;BME280;23188;51.188;16.374;2023-06-26T04:56:22;100218.94;;;24.44;86.23
37304;BME280;23188;51.188;16.374;2023-06-26T05:00:24;100217.19;;;25.21;82.14
37304;BME280;23188;51.188;16.374;2023-06-26T05:04:46;100211.98;;;25.64;79.79
37304;BME280;23188;51.188;16.374;2023-06-26T05:08:49;100204.83;;;26.54;78.76
37304;BME280;23188;51.188;16.374;2023-06-26T05:12:51;100204.17;;;27.50;74.53
37304;BME280;23188;51.188;16.374;2023-06-26T05:16:53;100197.03;;;28.02;71.05
37304;BME280;23188;51.188;16.374;2023-06-26T05:20:56;100197.30;;;27.73;70.34
37304;BME280;23188;51.188;16.374;2023-06-26T05:24:58;100197.75;;;27.50;70.76
37304;BME280;23188;51.188;16.374;2023-06-26T05:29:03;100199.22;;;27.03;72.16
37304;BME280;23188;51.188;16.374;2023-06-26T05:33:05;100198.14;;;26.99;72.97
37304;BME280;23188;51.188;16.374;2023-06-26T05:37:09;100192.30;;;26.61;73.64
37304;BME280;23188;51.188;16.374;2023-06-26T05:41:19;100189.63;;;26.96;74.12
37304;BME280;23188;51.188;16.374;2023-06-26T05:45:24;100192.00;;;27.00;72.34
37304;BME280;23188;51.188;16.374;2023-06-26T05:49:26;100196.59;;;27.36;73.93
37304;BME280;23188;51.188;16.374;2023-06-26T05:53:29;100193.27;;;27.57;72.39
37304;BME280;23188;51.188;16.374;2023-06-26T05:57:34;100193.83;;;27.86;73.02
37304;BME280;23188;51.188;16.374;2023-06-26T06:01:37;100190.63;;;28.70;72.31
37304;BME280;23188;51.188;16.374;2023-06-26T06:05:39;100180.81;;;29.24;70.66
37304;BME280;23188;51.188;16.374;2023-06-26T06:09:48;100182.91;;;29.29;71.21
37304;BME280;23188;51.188;16.374;2023-06-26T06:13:50;100184.11;;;29.25;70.03
37304;BME280;23188;51.188;16.374;2023-06-26T06:17:52;100182.85;;;28.80;71.78
37304;BME280;23188;51.188;16.374;2023-06-26T06:21:56;100187.08;;;28.26;73.48
37304;BME280;23188;51.188;16.374;2023-06-26T06:25:58;100186.90;;;27.90;76.54
37304;BME280;23188;51.188;16.374;2023-06-26T06:30:01;100186.78;;;27.64;78.08
37304;BME280;23188;51.188;16.374;2023-06-26T06:34:25;100181.34;;;27.52;79.69
37304;BME280;23188;51.188;16.374;2023-06-26T06:38:27;100176.31;;;27.63;79.41
37304;BME280;23188;51.188;16.374;2023-06-26T06:42:29;100173.29;;;27.59;76.46
37304;BME280;23188;51.188;16.374;2023-06-26T06:47:00;100171.58;;;27.71;76.26
37304;BME280;23188;51.188;16.374;2023-06-26T06:51:03;100170.60;;;27.97;74.95
37304;BME280;23188;51.188;16.374;2023-06-26T06:55:07;100169.23;;;28.30;73.08
37304;BME280;23188;51.188;16.374;2023-06-26T06:59:14;100168.67;;;28.72;71.76
37304;BME280;23188;51.188;16.374;2023-06-26T07:03:43;100167.37;;;29.14;70.21
37304;BME280;23188;51.188;16.374;2023-06-26T07:07:46;100158.64;;;29.53;69.11
37304;BME280;23188;51.188;16.374;2023-06-26T07:11:49;100162.35;;;29.88;65.27
37304;BME280;23188;51.188;16.374;2023-06-26T07:15:51;100161.45;;;29.91;62.64
37304;BME280;23188;51.188;16.374;2023-06-26T07:19:53;100156.80;;;30.11;62.45
37304;BME280;23188;51.188;16.374;2023-06-26T07:23:55;100151.27;;;30.22;59.72
37304;BME280;23188;51.188;16.374;2023-06-26T07:27:59;100152.02;;;30.28;62.08
37304;BME280;23188;51.188;16.374;2023-06-26T07:32:01;100150.59;;;30.41;59.88
37304;BME280;23188;51.188;16.374;2023-06-26T07:36:33;100149.53;;;30.46;60.45
37304;BME280;23188;51.188;16.374;2023-06-26T07:40:43;100143.68;;;30.55;61.72
37304;BME280;23188;51.188;16.374;2023-06-26T07:44:46;100146.10;;;30.62;58.31
37304;BME280;23188;51.188;16.374;2023-06-26T07:48:48;100136.03;;;30.74;58.54
37304;BME280;23188;51.188;16.374;2023-06-26T07:52:50;100135.38;;;30.92;57.08
37304;BME280;23188;51.188;16.374;2023-06-26T07:57:00;100134.06;;;31.02;56.12
37304;BME280;23188;51.188;16.374;2023-06-26T08:01:02;100132.70;;;31.05;54.53
37304;BME280;23188;51.188;16.374;2023-06-26T08:05:05;100132.04;;;31.23;56.61
37304;BME280;23188;51.188;16.374;2023-06-26T08:09:07;100126.50;;;31.41;55.87
37304;BME280;23188;51.188;16.374;2023-06-26T08:13:10;100130.30;;;31.58;57.29
37304;BME280;23188;51.188;16.374;2023-06-26T08:17:12;100129.55;;;31.70;55.04
37304;BME280;23188;51.188;16.374;2023-06-26T08:21:14;100128.30;;;31.70;54.78
37304;BME280;23188;51.188;16.374;2023-06-26T08:25:17;100124.91;;;31.80;53.57
37304;BME280;23188;51.188;16.374;2023-06-26T08:29:19;100121.89;;;32.16;54.56
37304;BME280;23188;51.188;16.374;2023-06-26T08:33:21;100124.25;;;32.28;53.60
37304;BME280;23188;51.188;16.374;2023-06-26T08:37:26;100122.01;;;32.20;53.54
37304;BME280;23188;51.188;16.374;2023-06-26T08:41:35;100118.92;;;32.20;53.70
37304;BME280;23188;51.188;16.374;2023-06-26T08:45:48;100119.55;;;31.92;50.57
37304;BME280;23188;51.188;16.374;2023-06-26T08:54:15;100116.13;;;30.89;52.21
37304;BME280;23188;51.188;16.374;2023-06-26T08:58:40;100110.69;;;30.68;53.05
37304;BME280;23188;51.188;16.374;2023-06-26T09:02:58;100114.64;;;30.95;54.84
37304;BME280;23188;51.188;16.374;2023-06-26T09:07:01;100107.72;;;31.18;58.43
37304;BME280;23188;51.188;16.374;2023-06-26T09:11:04;100107.09;;;31.16;52.52
37304;BME280;23188;51.188;16.374;2023-06-26T09:15:07;100098.85;;;31.11;52.96
37304;BME280;23188;51.188;16.374;2023-06-26T09:19:12;100099.87;;;30.97;56.03
37304;BME280;23188;51.188;16.374;2023-06-26T09:23:15;100096.52;;;30.83;56.06
37304;BME280;23188;51.188;16.374;2023-06-26T09:27:18;100097.80;;;30.91;58.23
37304;BME280;23188;51.188;16.374;2023-06-26T09:31:21;100092.20;;;30.81;57.95
37304;BME280;23188;51.188;16.374;2023-06-26T09:35:46;100089.46;;;30.92;54.02
37304;BME280;23188;51.188;16.374;2023-06-26T09:40:06;100080.56;;;30.92;54.00
37304;BME280;23188;51.188;16.374;2023-06-26T09:44:11;100080.30;;;30.72;56.95
37304;BME280;23188;51.188;16.374;2023-06-26T09:48:17;100081.83;;;30.69;55.52
37304;BME280;23188;51.188;16.374;2023-06-26T09:52:20;100075.39;;;30.77;56.09
37304;BME280;23188;51.188;16.374;2023-06-26T09:56:32;100077.95;;;30.83;54.76
37304;BME280;23188;51.188;16.374;2023-06-26T10:00:46;100078.66;;;30.82;54.76
37304;BME280;23188;51.188;16.374;2023-06-26T10:05:12;100074.36;;;30.91;54.75
37304;BME280;23188;51.188;16.374;2023-06-26T10:13:58;100069.98;;;30.82;51.75
37304;BME280;23188;51.188;16.374;2023-06-26T10:18:31;100064.26;;;30.78;53.97
37304;BME280;23188;51.188;16.374;2023-06-26T10:22:50;100062.34;;;30.82;58.78
37304;BME280;23188;51.188;16.374;2023-06-26T10:27:40;100060.02;;;30.77;55.27
37304;BME280;23188;51.188;16.374;2023-06-26T10:32:41;100053.23;;;30.67;57.01
37304;BME280;23188;51.188;16.374;2023-06-26T10:41:43;100047.58;;;30.62;55.94
37304;BME280;23188;51.188;16.374;2023-06-26T11:28:51;99995.69;;;30.60;58.11
37304;BME280;23188;51.188;16.374;2023-06-26T11:33:13;99996.08;;;30.60;59.04
37304;BME280;23188;51.188;16.374;2023-06-26T11:37:21;99993.07;;;30.71;58.81
37304;BME280;23188;51.188;16.374;2023-06-26T11:41:29;99982.15;;;30.61;54.76
37304;BME280;23188;51.188;16.374;2023-06-26T11:45:32;99980.98;;;30.49;55.76
37304;BME280;23188;51.188;16.374;2023-06-26T11:49:36;99975.63;;;30.63;58.00
37304;BME280;23188;51.188;16.374;2023-06-26T11:53:40;99977.88;;;30.73;60.37
37304;BME280;23188;51.188;16.374;2023-06-26T11:57:50;99974.10;;;30.80;60.41
37304;BME280;23188;51.188;16.374;2023-06-26T12:01:52;99969.77;;;30.81;56.42
37304;BME280;23188;51.188;16.374;2023-06-26T12:05:55;99968.21;;;30.90;57.40
37304;BME280;23188;51.188;16.374;2023-06-26T12:09:58;99965.27;;;30.99;57.52
37304;BME280;23188;51.188;16.374;2023-06-26T12:19:57;99959.47;;;31.05;58.50
37304;BME280;23188;51.188;16.374;2023-06-26T12:24:01;99953.81;;;31.06;56.30
37304;BME280;23188;51.188;16.374;2023-06-26T12:32:36;99951.98;;;31.19;57.37
37304;BME280;23188;51.188;16.374;2023-06-26T12:36:44;99944.42;;;31.23;54.26
37304;BME280;23188;51.188;16.374;2023-06-26T12:40:47;99940.78;;;31.21;52.53
37304;BME280;23188;51.188;16.374;2023-06-26T12:44:51;99944.59;;;31.30;58.65
37304;BME280;23188;51.188;16.374;2023-06-26T12:49:00;99940.05;;;31.43;56.29
37304;BME280;23188;51.188;16.374;2023-06-26T12:53:20;99930.98;;;31.51;55.40
37304;BME280;23188;51.188;16.374;2023-06-26T12:57:22;99925.75;;;31.56;58.05
37304;BME280;23188;51.188;16.374;2023-06-26T13:02:00;99915.36;;;31.66;57.41
37304;BME280;23188;51.188;16.374;2023-06-26T13:06:02;99915.64;;;31.82;60.73
37304;BME280;23188;51.188;16.374;2023-06-26T13:15:02;99904.73;;;32.00;55.77
37304;BME280;23188;51.188;16.374;2023-06-26T13:28:20;99874.61;;;31.77;55.00
37304;BME280;23188;51.188;16.374;2023-06-26T13:32:45;99868.13;;;31.89;55.34
37304;BME280;23188;51.188;16.374;2023-06-26T14:26:46;99796.10;;;32.64;54.76
37304;BME280;23188;51.188;16.374;2023-06-26T14:30:48;99782.67;;;32.45;53.14
37304;BME280;23188;51.188;16.374;2023-06-26T14:34:49;99776.47;;;32.31;54.47
37304;BME280;23188;51.188;16.374;2023-06-26T14:38:51;99777.38;;;32.24;56.14
37304;BME280;23188;51.188;16.374;2023-06-26T14:42:53;99768.36;;;32.20;55.69
37304;BME280;23188;51.188;16.374;2023-06-26T14:46:55;99767.00;;;32.19;57.39
37304;BME280;23188;51.188;16.374;2023-06-26T14:50:58;99765.17;;;32.21;57.05
37304;BME280;23188;51.188;16.374;2023-06-26T14:55:01;99764.31;;;32.18;55.96
37304;BME280;23188;51.188;16.374;2023-06-26T14:59:06;99754.16;;;32.13;53.71
37304;BME280;23188;51.188;16.374;2023-06-26T15:03:08;99746.27;;;31.97;53.89
37304;BME280;23188;51.188;16.374;2023-06-26T15:07:11;99738.13;;;31.97;55.20
37304;BME280;23188;51.188;16.374;2023-06-26T15:11:13;99732.16;;;32.02;53.66
37304;BME280;23188;51.188;16.374;2023-06-26T15:15:14;99723.55;;;32.01;55.67
37304;BME280;23188;51.188;16.374;2023-06-26T15:19:16;99717.02;;;31.94;56.52
37304;BME280;23188;51.188;16.374;2023-06-26T15:23:18;99714.22;;;31.96;55.55
37304;BME280;23188;51.188;16.374;2023-06-26T15:27:20;99709.98;;;31.95;55.91
37304;BME280;23188;51.188;16.374;2023-06-26T15:31:23;99711.13;;;31.89;57.44
37304;BME280;23188;51.188;16.374;2023-06-26T15:35:25;99704.39;;;31.79;56.98
37304;BME280;23188;51.188;16.374;2023-06-26T15:39:28;99702.21;;;31.68;55.51
37304;BME280;23188;51.188;16.374;2023-06-26T15:43:31;99703.17;;;31.61;56.65
37304;BME280;23188;51.188;16.374;2023-06-26T15:47:33;99701.10;;;31.59;56.68
37304;BME280;23188;51.188;16.374;2023-06-26T15:51:36;99702.65;;;31.55;58.28
37304;BME280;23188;51.188;16.374;2023-06-26T15:55:39;99691.56;;;31.67;59.06
37304;BME280;23188;51.188;16.374;2023-06-26T15:59:44;99686.77;;;31.68;59.12
37304;BME280;23188;51.188;16.374;2023-06-26T16:03:46;99682.98;;;31.67;58.15
37304;BME280;23188;51.188;16.374;2023-06-26T16:07:53;99679.27;;;31.77;54.78
37304;BME280;23188;51.188;16.374;2023-06-26T16:11:59;99677.08;;;31.88;56.65
37304;BME280;23188;51.188;16.374;2023-06-26T16:16:01;99672.81;;;31.85;57.02
37304;BME280;23188;51.188;16.374;2023-06-26T16:20:03;99662.66;;;31.79;57.78
37304;BME280;23188;51.188;16.374;2023-06-26T16:24:05;99650.28;;;31.82;56.42
37304;BME280;23188;51.188;16.374;2023-06-26T16:28:19;99644.55;;;31.85;56.75
37304;BME280;23188;51.188;16.374;2023-06-26T16:32:20;99636.55;;;31.74;57.28
37304;BME280;23188;51.188;16.374;2023-06-26T16:36:23;99640.89;;;31.63;59.15
37304;BME280;23188;51.188;16.374;2023-06-26T16:40:25;99640.42;;;31.47;61.33
37304;BME280;23188;51.188;16.374;2023-06-26T16:44:26;99643.30;;;31.23;59.29
37304;BME280;23188;51.188;16.374;2023-06-26T16:48:28;99643.29;;;31.01;59.66
37304;BME280;23188;51.188;16.374;2023-06-26T16:52:30;99634.34;;;30.78;60.39
37304;BME280;23188;51.188;16.374;2023-06-26T17:01:36;99635.27;;;30.41;61.19
37304;BME280;23188;51.188;16.374;2023-06-26T17:05:40;99625.55;;;30.18;64.07
37304;BME280;23188;51.188;16.374;2023-06-26T17:09:43;99620.48;;;29.90;67.28
37304;BME280;23188;51.188;16.374;2023-06-26T17:13:44;99615.87;;;29.63;71.16
37304;BME280;23188;51.188;16.374;2023-06-26T17:22:40;99611.91;;;29.35;70.47
37304;BME280;23188;51.188;16.374;2023-06-26T17:31:29;99605.33;;;28.98;73.69
37304;BME280;23188;51.188;16.374;2023-06-26T17:35:35;99602.80;;;28.81;74.49
37304;BME280;23188;51.188;16.374;2023-06-26T17:39:39;99600.52;;;28.68;74.56
37304;BME280;23188;51.188;16.374;2023-06-26T17:43:54;99600.60;;;28.55;74.94
37304;BME280;23188;51.188;16.374;2023-06-26T17:47:56;99594.46;;;28.39;77.68
37304;BME280;23188;51.188;16.374;2023-06-26T17:52:01;99589.85;;;28.17;80.06
37304;BME280;23188;51.188;16.374;2023-06-26T17:56:03;99584.80;;;27.95;81.80
37304;BME280;23188;51.188;16.374;2023-06-26T18:00:07;99584.98;;;27.73;82.25
37304;BME280;23188;51.188;16.374;2023-06-26T18:04:10;99585.64;;;27.55;82.70
37304;BME280;23188;51.188;16.374;2023-06-26T18:08:12;99580.75;;;27.38;82.93
37304;BME280;23188;51.188;16.374;2023-06-26T18:12:13;99575.85;;;27.26;81.53
37304;BME280;23188;51.188;16.374;2023-06-26T18:16:15;99571.09;;;27.20;81.72
37304;BME280;23188;51.188;16.374;2023-06-26T18:20:29;99562.08;;;27.10;81.64
37304;BME280;23188;51.188;16.374;2023-06-26T18:24:31;99545.70;;;27.03;82.08
37304;BME280;23188;51.188;16.374;2023-06-26T18:28:42;99531.98;;;26.88;83.72
37304;BME280;23188;51.188;16.374;2023-06-26T18:32:45;99530.69;;;26.74;83.98
37304;BME280;23188;51.188;16.374;2023-06-26T18:36:53;99519.87;;;26.66;84.08
37304;BME280;23188;51.188;16.374;2023-06-26T18:40:55;99530.27;;;26.59;84.08
37304;BME280;23188;51.188;16.374;2023-06-26T18:44:59;99530.54;;;26.52;83.81
37304;BME280;23188;51.188;16.374;2023-06-26T18:49:04;99540.98;;;26.44;83.43
37304;BME280;23188;51.188;16.374;2023-06-26T18:53:06;99543.92;;;26.39;83.46
37304;BME280;23188;51.188;16.374;2023-06-26T18:57:07;99542.19;;;26.30;83.55
37304;BME280;23188;51.188;16.374;2023-06-26T19:01:09;99546.88;;;26.14;83.81
37304;BME280;23188;51.188;16.374;2023-06-26T19:05:11;99614.30;;;25.57;86.57
37304;BME280;23188;51.188;16.374;2023-06-26T19:09:13;99628.23;;;24.97;85.99
37304;BME280;23188;51.188;16.374;2023-06-26T19:13:16;99627.02;;;24.53;88.19
37304;BME280;23188;51.188;16.374;2023-06-26T19:17:20;99643.11;;;24.11;89.97
37304;BME280;23188;51.188;16.374;2023-06-26T19:21:21;99718.60;;;23.77;94.36
37304;BME280;23188;51.188;16.374;2023-06-26T19:25:23;99757.27;;;22.87;100.00
37304;BME280;23188;51.188;16.374;2023-06-26T19:29:47;99742.23;;;21.44;100.00
37304;BME280;23188;51.188;16.374;2023-06-26T19:33:49;99806.45;;;20.74;100.00
37304;BME280;23188;51.188;16.374;2023-06-26T19:37:50;99820.35;;;20.52;100.00
37304;BME280;23188;51.188;16.374;2023-06-26T19:42:06;99797.07;;;20.50;100.00
37304;BME280;23188;51.188;16.374;2023-06-26T19:46:07;99788.46;;;20.48;100.00
37304;BME280;23188;51.188;16.374;2023-06-26T19:50:09;99779.65;;;20.50;100.00
37304;BME280;23188;51.188;16.374;2023-06-26T19:54:11;99800.54;;;20.55;100.00
37304;BME280;23188;51.188;16.374;2023-06-26T19:58:13;99797.91;;;20.52;100.00
37304;BME280;23188;51.188;16.374;2023-06-26T20:02:15;99826.18;;;20.57;100.00
37304;BME280;23188;51.188;16.374;2023-06-26T20:06:17;99852.86;;;20.65;100.00
37304;BME280;23188;51.188;16.374;2023-06-26T20:10:19;99865.59;;;20.65;100.00
37304;BME280;23188;51.188;16.374;2023-06-26T20:14:20;99869.71;;;20.58;100.00
37304;BME280;23188;51.188;16.374;2023-06-26T20:18:22;99880.46;;;20.55;100.00
37304;BME280;23188;51.188;16.374;2023-06-26T20:22:26;99884.99;;;20.55;100.00
37304;BME280;23188;51.188;16.374;2023-06-26T20:26:27;99888.50;;;20.62;100.00
37304;BME280;23188;51.188;16.374;2023-06-26T20:30:29;99885.85;;;20.65;100.00
37304;BME280;23188;51.188;16.374;2023-06-26T20:34:31;99900.38;;;20.77;100.00
37304;BME280;23188;51.188;16.374;2023-06-26T20:38:33;99922.86;;;20.86;100.00
37304;BME280;23188;51.188;16.374;2023-06-26T20:42:35;99935.41;;;20.89;100.00
37304;BME280;23188;51.188;16.374;2023-06-26T20:46:38;99930.95;;;20.79;100.00
37304;BME280;23188;51.188;16.374;2023-06-26T20:50:59;99934.69;;;20.71;100.00
37304;BME280;23188;51.188;16.374;2023-06-26T20:55:02;99935.95;;;20.66;100.00
37304;BME280;23188;51.188;16.374;2023-06-26T21:03:57;99935.36;;;20.63;100.00
37304;BME280;23188;51.188;16.374;2023-06-26T21:07:59;99928.09;;;20.63;100.00
37304;BME280;23188;51.188;16.374;2023-06-26T21:12:28;99935.77;;;20.62;100.00
37304;BME280;23188;51.188;16.374;2023-06-26T21:16:30;99936.19;;;20.52;100.00
37304;BME280;23188;51.188;16.374;2023-06-26T21:20:57;99928.50;;;20.45;100.00
37304;BME280;23188;51.188;16.374;2023-06-26T21:24:59;99909.02;;;20.45;100.00
37304;BME280;23188;51.188;16.374;2023-06-26T21:29:01;99906.09;;;20.41;100.00
37304;BME280;23188;51.188;16.374;2023-06-26T21:33:10;99907.11;;;20.41;100.00
37304;BME280;23188;51.188;16.374;2023-06-26T21:37:11;99906.30;;;20.35;100.00
37304;BME280;23188;51.188;16.374;2023-06-26T21:41:13;99917.57;;;20.36;100.00
37304;BME280;23188;51.188;16.374;2023-06-26T21:45:15;99921.63;;;20.44;100.00
37304;BME280;23188;51.188;16.374;2023-06-26T21:49:17;99938.71;;;20.52;100.00
37304;BME280;23188;51.188;16.374;2023-06-26T21:53:19;99940.40;;;20.50;100.00
37304;BME280;23188;51.188;16.374;2023-06-26T21:57:31;99944.91;;;20.51;100.00
37304;BME280;23188;51.188;16.374;2023-06-26T22:01:32;99917.50;;;20.56;100.00
37304;BME280;23188;51.188;16.374;2023-06-26T22:05:34;99879.17;;;20.46;100.00
37304;BME280;23188;51.188;16.374;2023-06-26T22:09:36;99878.70;;;20.36;100.00
37304;BME280;23188;51.188;16.374;2023-06-26T22:13:39;99882.14;;;20.31;100.00
37304;BME280;23188;51.188;16.374;2023-06-26T22:17:49;99890.63;;;20.28;100.00
37304;BME280;23188;51.188;16.374;2023-06-26T22:22:06;99881.80;;;20.23;100.00
37304;BME280;23188;51.188;16.374;2023-06-26T22:31:05;99894.45;;;20.12;100.00
37304;BME280;23188;51.188;16.374;2023-06-26T22:35:25;99896.75;;;20.07;100.00
37304;BME280;23188;51.188;16.374;2023-06-26T22:39:26;99900.20;;;20.03;100.00
37304;BME280;23188;51.188;16.374;2023-06-26T22:43:29;99891.73;;;20.04;100.00
37304;BME280;23188;51.188;16.374;2023-06-26T22:47:30;99887.46;;;19.93;100.00
37304;BME280;23188;51.188;16.374;2023-06-26T22:51:32;99878.73;;;19.94;100.00
37304;BME280;23188;51.188;16.374;2023-06-26T23:00:56;99876.76;;;19.97;100.00
37304;BME280;23188;51.188;16.374;2023-06-26T23:05:02;99879.52;;;20.03;100.00
37304;BME280;23188;51.188;16.374;2023-06-26T23:09:05;99881.97;;;19.94;100.00
37304;BME280;23188;51.188;16.374;2023-06-26T23:13:07;99890.34;;;19.82;100.00
37304;BME280;23188;51.188;16.374;2023-06-26T23:17:09;99890.33;;;19.77;100.00
37304;BME280;23188;51.188;16.374;2023-06-26T23:21:18;99891.13;;;19.73;100.00
37304;BME280;23188;51.188;16.374;2023-06-26T23:25:21;99902.61;;;19.65;100.00
37304;BME280;23188;51.188;16.374;2023-06-26T23:29:22;99906.95;;;19.69;100.00
37304;BME280;23188;51.188;16.374;2023-06-26T23:33:24;99902.35;;;19.75;100.00
37304;BME280;23188;51.188;16.374;2023-06-26T23:37:33;99903.45;;;19.74;100.00
37304;BME280;23188;51.188;16.374;2023-06-26T23:41:34;99899.19;;;19.75;100.00
37304;BME280;23188;51.188;16.374;2023-06-26T23:45:36;99913.73;;;19.71;100.00
37304;BME280;23188;51.188;16.374;2023-06-26T23:49:39;99927.45;;;19.69;100.00
37304;BME280;23188;51.188;16.374;2023-06-26T23:53:41;99933.84;;;19.67;100.00
37304;BME280;23188;51.188;16.374;2023-06-26T23:57:48;99940.33;;;19.60;100.00
